createdAt,value
2018-07-04T00:00:08.634Z,100030.34
2018-07-04T00:02:48.122Z,100035.31
2018-07-04T00:05:27.757Z,100035.77
2018-07-04T00:08:07.275Z,100037.42
2018-07-04T00:10:47.112Z,100034.55
2018-07-04T00:13:26.718Z,100037.33
2018-07-04T00:16:06.571Z,100041.83
2018-07-04T00:18:47.092Z,100045.83
2018-07-04T00:21:26.591Z,100046.98
2018-07-04T00:24:06.096Z,100051.09
2018-07-04T00:26:46.660Z,100046.91
2018-07-04T00:29:26.069Z,100045.83
2018-07-04T00:32:05.733Z,100042.83
2018-07-04T00:34:45.166Z,100038.97
2018-07-04T00:37:24.610Z,100041.64
2018-07-04T00:40:04.105Z,100038.89
2018-07-04T00:42:43.521Z,100042.28
2018-07-04T00:45:23.136Z,100036.25
2018-07-04T00:48:02.530Z,100037.09
2018-07-04T00:50:45.348Z,100047.42
2018-07-04T00:53:24.916Z,100050.27
2018-07-04T00:56:04.556Z,100050.02
2018-07-04T00:58:44.109Z,100051.78
2018-07-04T01:01:23.341Z,100047.09
2018-07-04T01:04:02.771Z,100046.07
2018-07-04T01:06:42.278Z,100048.86
2018-07-04T01:09:21.848Z,100041.95
2018-07-04T01:12:01.288Z,100032.72
2018-07-04T01:14:40.677Z,100036.11
2018-07-04T01:17:20.051Z,100035.47
2018-07-04T01:19:59.380Z,100025.06
2018-07-04T01:22:38.829Z,100025.27
2018-07-04T01:25:18.116Z,100030.20
2018-07-04T01:27:57.609Z,100030.59
2018-07-04T01:30:37.189Z,100021.23
2018-07-04T01:33:16.721Z,100023.19
2018-07-04T01:35:56.211Z,100014.91
2018-07-04T01:38:35.696Z,100021.97
2018-07-04T01:41:15.211Z,100029.44
2018-07-04T01:43:54.783Z,100029.44
2018-07-04T01:46:34.185Z,100023.39
2018-07-04T01:49:13.770Z,100026.16
2018-07-04T01:51:53.415Z,100026.66
2018-07-04T01:54:32.828Z,100024.89
2018-07-04T01:57:12.123Z,100027.90
2018-07-04T01:59:51.519Z,100030.50
2018-07-04T02:02:30.907Z,100026.98
2018-07-04T02:05:10.404Z,100027.30
2018-07-04T02:07:49.894Z,100027.37
2018-07-04T02:10:29.243Z,100021.64
2018-07-04T02:13:08.685Z,100018.12
2018-07-04T02:15:48.166Z,100015.03
2018-07-04T02:18:27.718Z,100022.79
2018-07-04T02:21:07.271Z,100015.78
2018-07-04T02:23:46.674Z,100012.46
2018-07-04T02:26:26.023Z,100009.40
2018-07-04T02:29:05.337Z,100011.45
2018-07-04T02:31:44.766Z,100009.13
2018-07-04T02:34:25.762Z,100007.70
2018-07-04T02:37:07.034Z,100006.36
2018-07-04T02:39:46.559Z,100006.26
2018-07-04T02:42:25.983Z,100009.83
2018-07-04T02:45:05.421Z,100014.22
2018-07-04T02:47:44.910Z,100015.48
2018-07-04T02:50:24.335Z,100012.89
2018-07-04T02:53:03.870Z,100009.40
2018-07-04T02:55:43.500Z,100016.75
2018-07-04T02:58:23.046Z,100014.16
2018-07-04T03:01:02.601Z,100014.97
2018-07-04T03:03:42.221Z,100010.19
2018-07-04T03:06:21.690Z,100012.34
2018-07-04T03:09:01.202Z,100009.30
2018-07-04T03:11:40.780Z,100008.86
2018-07-04T03:14:20.381Z,100008.54
2018-07-04T03:16:59.745Z,100013.69
2018-07-04T03:19:39.300Z,100009.37
2018-07-04T03:22:18.882Z,100011.54
2018-07-04T03:24:58.261Z,100014.64
2018-07-04T03:27:37.606Z,100010.27
2018-07-04T03:30:17.090Z,100008.95
2018-07-04T03:32:56.706Z,100013.80
2018-07-04T03:35:36.258Z,100003.41
2018-07-04T03:38:15.724Z,100006.36
2018-07-04T03:40:55.167Z,100008.54
2018-07-04T03:43:34.577Z,100013.78
2018-07-04T03:46:13.970Z,100007.72
2018-07-04T03:48:53.515Z,100013.71
2018-07-04T03:51:33.009Z,100014.11
2018-07-04T03:54:12.655Z,100013.28
2018-07-04T03:56:52.330Z,100008.53
2018-07-04T03:59:31.728Z,100017.23
2018-07-04T04:02:11.178Z,100019.81
2018-07-04T04:04:50.789Z,100022.35
2018-07-04T04:07:30.355Z,100026.30
2018-07-04T04:10:09.937Z,100028.87
2018-07-04T04:12:49.438Z,100023.53
2018-07-04T04:15:28.925Z,100019.19
2018-07-04T04:18:08.338Z,100032.64
2018-07-04T04:20:47.915Z,100034.52
2018-07-04T04:23:27.390Z,100040.11
2018-07-04T04:26:06.830Z,100039.16
2018-07-04T04:28:46.253Z,100040.45
2018-07-04T04:31:28.714Z,100042.95
2018-07-04T04:34:08.223Z,100045.50
2018-07-04T04:36:47.591Z,100047.80
2018-07-04T04:39:27.052Z,100045.54
2018-07-04T04:42:06.450Z,100045.17
2018-07-04T04:44:45.814Z,100051.28
2018-07-04T04:47:25.279Z,100048.30
2018-07-04T04:50:04.736Z,100051.31
2018-07-04T04:52:44.263Z,100050.86
2018-07-04T04:55:23.807Z,100055.58
2018-07-04T04:58:03.378Z,100059.84
2018-07-04T05:00:42.897Z,100056.02
2018-07-04T05:03:22.384Z,100055.98
2018-07-04T05:06:02.060Z,100054.69
2018-07-04T05:08:41.570Z,100055.03
2018-07-04T05:11:21.357Z,100057.78
2018-07-04T05:14:00.860Z,100058.63
2018-07-04T05:16:40.391Z,100057.78
2018-07-04T05:19:19.820Z,100056.92
2018-07-04T05:21:59.215Z,100063.83
2018-07-04T05:24:38.770Z,100061.69
2018-07-04T05:27:18.452Z,100056.92
2018-07-04T05:29:57.887Z,100053.06
2018-07-04T05:32:37.443Z,100053.87
2018-07-04T05:35:16.787Z,100057.28
2018-07-04T05:37:56.206Z,100050.28
2018-07-04T05:40:35.627Z,100054.14
2018-07-04T05:43:15.196Z,100047.13
2018-07-04T05:45:54.866Z,100046.02
2018-07-04T05:48:34.317Z,100052.06
2018-07-04T05:51:13.821Z,100046.55
2018-07-04T05:53:53.270Z,100055.88
2018-07-04T05:56:32.650Z,100046.63
2018-07-04T05:59:13.003Z,100047.16
2018-07-04T06:01:52.422Z,100052.88
2018-07-04T06:04:31.838Z,100051.05
2018-07-04T06:07:11.382Z,100051.72
2018-07-04T06:09:50.934Z,100061.26
2018-07-04T06:12:30.598Z,100062.98
2018-07-04T06:15:10.120Z,100056.88
2018-07-04T06:17:49.604Z,100054.31
2018-07-04T06:20:29.001Z,100054.76
2018-07-04T06:23:08.537Z,100053.03
2018-07-04T06:25:47.938Z,100050.83
2018-07-04T06:28:27.417Z,100057.31
2018-07-04T06:31:06.822Z,100059.08
2018-07-04T06:33:46.314Z,100058.48
2018-07-04T06:36:25.806Z,100053.36
2018-07-04T06:38:52.878Z,100061.08
2018-07-04T06:41:19.937Z,100056.43
2018-07-04T06:43:47.001Z,100058.66
2018-07-04T06:46:14.061Z,100059.88
2018-07-04T06:48:41.135Z,100059.84
2018-07-04T06:51:08.209Z,100060.30
2018-07-04T06:53:35.349Z,100059.84
2018-07-04T06:56:02.406Z,100057.06
2018-07-04T06:58:29.462Z,100056.68
2018-07-04T07:00:56.537Z,100046.90
2018-07-04T07:03:36.059Z,100053.70
2018-07-04T07:06:15.743Z,100052.48
2018-07-04T07:08:55.250Z,100056.95
2018-07-04T07:11:34.486Z,100060.47
2018-07-04T07:14:13.858Z,100051.88
2018-07-04T07:16:53.320Z,100055.61
2018-07-04T07:19:32.742Z,100059.94
2018-07-04T07:22:12.270Z,100065.53
2018-07-04T07:24:51.802Z,100059.43
2018-07-04T07:27:31.315Z,100053.04
2018-07-04T07:30:10.664Z,100054.63
2018-07-04T07:32:50.205Z,100060.95
2018-07-04T07:35:29.598Z,100060.48
2018-07-04T07:38:09.134Z,100056.24
2018-07-04T07:40:48.694Z,100048.97
2018-07-04T07:43:28.224Z,100060.93
2018-07-04T07:46:08.145Z,100051.05
2018-07-04T07:48:47.601Z,100047.58
2018-07-04T07:51:26.965Z,100040.37
2018-07-04T07:54:06.549Z,100043.97
2018-07-04T07:56:45.878Z,100042.49
2018-07-04T07:59:25.385Z,100041.52
2018-07-04T08:02:04.799Z,100043.53
2018-07-04T08:04:44.243Z,100041.63
2018-07-04T08:07:23.546Z,100032.54
2018-07-04T08:10:03.074Z,100030.58
2018-07-04T08:12:42.738Z,100035.94
2018-07-04T08:15:22.182Z,100030.13
2018-07-04T08:18:01.954Z,100029.29
2018-07-04T08:20:41.413Z,100026.71
2018-07-04T08:23:20.834Z,100028.98
2018-07-04T08:26:00.239Z,100034.78
2018-07-04T08:28:39.699Z,100027.99
2018-07-04T08:31:19.207Z,100036.09
2018-07-04T08:33:58.642Z,100039.55
2018-07-04T08:36:38.072Z,100032.22
2018-07-04T08:39:17.533Z,100038.56
2018-07-04T08:41:57.018Z,100039.23
2018-07-04T08:44:36.622Z,100047.56
2018-07-04T08:47:16.154Z,100041.80
2018-07-04T08:49:55.576Z,100042.66
2018-07-04T08:52:34.839Z,100044.72
2018-07-04T08:55:14.311Z,100043.61
2018-07-04T08:57:53.794Z,100045.84
2018-07-04T09:00:33.330Z,100043.59
2018-07-04T09:03:12.693Z,100042.47
2018-07-04T09:05:52.210Z,100040.52
2018-07-04T09:08:31.569Z,100049.00
2018-07-04T09:11:11.100Z,100053.13
2018-07-04T09:13:50.417Z,100051.98
2018-07-04T09:16:29.858Z,100052.91
2018-07-04T09:19:09.415Z,100059.26
2018-07-04T09:21:49.006Z,100059.92
2018-07-04T09:24:28.613Z,100069.06
2018-07-04T09:27:07.898Z,100063.16
2018-07-04T09:29:47.526Z,100057.77
2018-07-04T09:32:27.071Z,100053.89
2018-07-04T09:35:06.445Z,100063.44
2018-07-04T09:37:45.801Z,100066.50
2018-07-04T09:40:25.227Z,100075.09
2018-07-04T09:43:04.743Z,100067.00
2018-07-04T09:45:44.171Z,100076.09
2018-07-04T09:48:23.838Z,100071.24
2018-07-04T09:51:03.306Z,100071.45
2018-07-04T09:53:42.970Z,100070.75
2018-07-04T09:56:22.531Z,100067.37
2018-07-04T09:59:02.386Z,100063.91
2018-07-04T10:01:41.747Z,100070.66
2018-07-04T10:04:21.291Z,100072.39
2018-07-04T10:07:00.795Z,100069.22
2018-07-04T10:09:40.493Z,100066.22
2018-07-04T10:12:19.989Z,100060.72
2018-07-04T10:14:59.731Z,100074.16
2018-07-04T10:17:39.515Z,100068.41
2018-07-04T10:20:19.128Z,100067.35
2018-07-04T10:22:58.785Z,100057.71
2018-07-04T10:25:38.297Z,100061.63
2018-07-04T10:28:18.220Z,100058.72
2018-07-04T10:30:57.628Z,100062.61
2018-07-04T10:33:37.136Z,100055.95
2018-07-04T10:36:16.813Z,100050.06
2018-07-04T10:38:56.157Z,100045.72
2018-07-04T10:41:35.494Z,100045.05
2018-07-04T10:44:14.782Z,100039.95
2018-07-04T10:46:54.254Z,100037.77
2018-07-04T10:49:33.813Z,100033.64
2018-07-04T10:52:13.596Z,100028.34
2018-07-04T10:54:53.220Z,100020.77
2018-07-04T10:57:32.970Z,100017.07
2018-07-04T11:00:12.398Z,100019.03
2018-07-04T11:02:51.831Z,100004.81
2018-07-04T11:05:31.200Z,100006.23
2018-07-04T11:08:10.837Z,100002.52
2018-07-04T11:10:50.306Z,99991.08
2018-07-04T11:13:29.777Z,99984.75
2018-07-04T11:16:09.362Z,99980.89
2018-07-04T11:18:48.870Z,99979.88
2018-07-04T11:21:28.370Z,99976.23
2018-07-04T11:24:08.145Z,99977.46
2018-07-04T11:26:47.842Z,99968.23
2018-07-04T11:29:27.107Z,99971.83
2018-07-04T11:32:06.637Z,99965.44
2018-07-04T11:34:46.090Z,99960.02
2018-07-04T11:37:25.455Z,99953.97
2018-07-04T11:40:04.834Z,99962.69
2018-07-04T11:42:45.047Z,99947.17
2018-07-04T11:45:24.647Z,99947.86
2018-07-04T11:47:51.758Z,99944.17
2018-07-04T11:50:18.821Z,99951.19
2018-07-04T11:52:45.950Z,99941.12
2018-07-04T11:55:13.062Z,99943.39
2018-07-04T11:57:40.159Z,99946.70
2018-07-04T12:00:07.271Z,99948.02
2018-07-04T12:02:34.409Z,99941.86
2018-07-04T12:05:13.897Z,99935.94
2018-07-04T12:07:40.964Z,99935.64
2018-07-04T12:10:08.042Z,99928.58
2018-07-04T12:12:35.440Z,99931.47
2018-07-04T12:15:03.005Z,99921.33
2018-07-04T12:17:30.114Z,99923.07
2018-07-04T12:19:57.172Z,99915.85
2018-07-04T12:22:24.302Z,99909.23
2018-07-04T12:24:51.408Z,99902.19
2018-07-04T12:27:18.512Z,99893.91
2018-07-04T12:29:45.563Z,99885.05
2018-07-04T12:32:12.642Z,99891.44
2018-07-04T12:34:39.850Z,99887.33
2018-07-04T12:37:06.908Z,99891.20
2018-07-04T12:39:33.983Z,99881.16
2018-07-04T12:42:01.051Z,99888.97
2018-07-04T12:44:28.434Z,99883.62
2018-07-04T12:46:55.944Z,99882.69
2018-07-04T12:49:27.942Z,99893.30
2018-07-04T12:51:55.306Z,99905.59
2018-07-04T12:54:27.777Z,99920.34
2018-07-04T12:57:07.161Z,99934.02
2018-07-04T12:59:46.854Z,99938.13
2018-07-04T13:02:26.303Z,99960.77
2018-07-04T13:05:05.906Z,99960.47
2018-07-04T13:07:45.304Z,99967.94
2018-07-04T13:10:24.987Z,99958.59
2018-07-04T13:13:04.381Z,99965.50
2018-07-04T13:15:43.928Z,99993.70
2018-07-04T13:18:23.472Z,100041.84
2018-07-04T13:21:02.936Z,100041.56
2018-07-04T13:23:42.548Z,100049.11
2018-07-04T13:26:22.044Z,100038.99
2018-07-04T13:29:01.646Z,100027.40
2018-07-04T13:31:41.112Z,100019.76
2018-07-04T13:34:20.563Z,100012.91
2018-07-04T13:36:59.982Z,100002.25
2018-07-04T13:39:39.566Z,100004.51
2018-07-04T13:42:19.182Z,100024.20
2018-07-04T13:44:58.827Z,99993.36
2018-07-04T13:47:38.203Z,99992.51
2018-07-04T13:50:17.713Z,100001.66
2018-07-04T13:52:57.159Z,99996.07
2018-07-04T13:55:36.625Z,99982.16
2018-07-04T13:58:16.143Z,99988.30
2018-07-04T14:00:55.718Z,99982.27
2018-07-04T14:03:35.295Z,99978.59
2018-07-04T14:06:15.334Z,99983.98
2018-07-04T14:08:54.893Z,99984.68
2018-07-04T14:11:34.342Z,99970.45
2018-07-04T14:14:13.649Z,99973.34
2018-07-04T14:16:53.134Z,99968.09
2018-07-04T14:19:32.572Z,99965.58
2018-07-04T14:22:12.003Z,99952.52
2018-07-04T14:24:51.509Z,99948.70
2018-07-04T14:27:30.920Z,99956.94
2018-07-04T14:30:10.524Z,99940.25
2018-07-04T14:32:50.035Z,99939.66
2018-07-04T14:35:29.447Z,99937.31
2018-07-04T14:38:08.807Z,99929.41
2018-07-04T14:40:48.311Z,99927.02
2018-07-04T14:43:27.829Z,99929.23
2018-07-04T14:46:07.501Z,99930.70
2018-07-04T14:48:47.039Z,99937.66
2018-07-04T14:51:26.555Z,99943.84
2018-07-04T14:54:06.158Z,99939.94
2018-07-04T14:56:45.768Z,99951.70
2018-07-04T14:59:25.257Z,99943.70
2018-07-04T15:02:04.725Z,99952.32
2018-07-04T15:04:44.130Z,99954.91
2018-07-04T15:07:23.705Z,99966.55
2018-07-04T15:10:03.223Z,99961.58
2018-07-04T15:12:42.615Z,99963.89
2018-07-04T15:15:22.112Z,99968.67
2018-07-04T15:18:01.628Z,99979.95
2018-07-04T15:20:41.161Z,99972.71
2018-07-04T15:23:20.350Z,99968.39
2018-07-04T15:25:59.848Z,99969.00
2018-07-04T15:28:39.309Z,99969.14
2018-07-04T15:31:18.977Z,99968.27
2018-07-04T15:33:58.485Z,99975.05
2018-07-04T15:36:38.081Z,99980.92
2018-07-04T15:39:18.300Z,99975.66
2018-07-04T15:41:57.650Z,99982.27
2018-07-04T15:44:36.946Z,99988.96
2018-07-04T15:47:16.138Z,99986.42
2018-07-04T15:49:55.769Z,99988.94
2018-07-04T15:52:35.367Z,99971.73
2018-07-04T15:55:14.816Z,99978.86
2018-07-04T15:57:54.327Z,99972.17
2018-07-04T16:00:33.752Z,99973.91
2018-07-04T16:03:13.279Z,99976.34
2018-07-04T16:05:52.862Z,99972.69
2018-07-04T16:08:32.883Z,99966.94
2018-07-04T16:11:12.418Z,99961.58
2018-07-04T16:13:51.846Z,99971.36
2018-07-04T16:16:31.145Z,99973.86
2018-07-04T16:19:10.430Z,99981.32
2018-07-04T16:21:50.015Z,99985.78
2018-07-04T16:24:29.518Z,99988.53
2018-07-04T16:27:09.091Z,99982.98
2018-07-04T16:29:48.595Z,99978.23
2018-07-04T16:32:28.094Z,99954.73
2018-07-04T16:35:07.574Z,99953.54
2018-07-04T16:37:46.843Z,99946.48
2018-07-04T16:40:26.526Z,99950.83
2018-07-04T16:43:05.969Z,99952.28
2018-07-04T16:45:46.190Z,99917.77
2018-07-04T16:48:25.779Z,99910.38
2018-07-04T16:51:05.360Z,99902.39
2018-07-04T16:53:44.873Z,99897.14
2018-07-04T16:56:24.604Z,99883.26
2018-07-04T16:59:03.988Z,99864.00
2018-07-04T17:01:43.321Z,99858.16
2018-07-04T17:04:22.822Z,99868.00
2018-07-04T17:07:02.274Z,99864.91
2018-07-04T17:09:41.685Z,99856.34
2018-07-04T17:12:21.192Z,99850.94
2018-07-04T17:15:00.858Z,99850.70
2018-07-04T17:17:40.239Z,99850.61
2018-07-04T17:20:19.643Z,99843.52
2018-07-04T17:22:59.247Z,99835.17
2018-07-04T17:25:38.770Z,99829.39
2018-07-04T17:28:18.161Z,99818.38
2018-07-04T17:30:57.562Z,99801.57
2018-07-04T17:33:37.113Z,99795.55
2018-07-04T17:36:16.687Z,99794.56
2018-07-04T17:38:56.098Z,99796.26
2018-07-04T17:41:35.562Z,99792.04
2018-07-04T17:44:15.182Z,99784.52
2018-07-04T17:46:54.854Z,99785.27
2018-07-04T17:49:34.482Z,99792.39
2018-07-04T17:52:13.993Z,99809.13
2018-07-04T17:54:53.395Z,99818.56
2018-07-04T17:57:32.901Z,99823.53
2018-07-04T18:00:12.358Z,99814.02
2018-07-04T18:02:51.957Z,99817.73
2018-07-04T18:05:31.345Z,99822.20
2018-07-04T18:08:10.802Z,99845.55
2018-07-04T18:10:50.570Z,99859.16
2018-07-04T18:13:30.244Z,99863.05
2018-07-04T18:16:09.717Z,99868.50
2018-07-04T18:18:49.366Z,99869.32
2018-07-04T18:21:28.890Z,99885.13
2018-07-04T18:24:09.075Z,99893.89
2018-07-04T18:26:48.840Z,99903.97
2018-07-04T18:29:28.406Z,99903.34
2018-07-04T18:32:07.987Z,99910.73
2018-07-04T18:34:47.494Z,99916.54
2018-07-04T18:37:27.489Z,99930.48
2018-07-04T18:40:06.978Z,99930.68
2018-07-04T18:42:46.765Z,99932.78
2018-07-04T18:45:26.230Z,99928.74
2018-07-04T18:48:05.649Z,99950.27
2018-07-04T18:50:45.082Z,99946.69
2018-07-04T18:53:24.559Z,99945.80
2018-07-04T18:56:04.037Z,99945.86
2018-07-04T18:58:43.478Z,99945.58
2018-07-04T19:01:22.906Z,99936.41
2018-07-04T19:04:02.489Z,99926.97
2018-07-04T19:06:42.021Z,99930.85
2018-07-04T19:09:21.363Z,99922.50
2018-07-04T19:12:00.911Z,99928.14
2018-07-04T19:14:40.314Z,99928.27
2018-07-04T19:17:19.771Z,99934.58
2018-07-04T19:19:59.242Z,99936.59
2018-07-04T19:22:38.787Z,99953.18
2018-07-04T19:25:18.197Z,99958.11
2018-07-04T19:27:57.771Z,99949.36
2018-07-04T19:30:37.210Z,99947.97
2018-07-04T19:33:16.993Z,99950.02
2018-07-04T19:35:56.347Z,99942.61
2018-07-04T19:38:35.812Z,99941.38
2018-07-04T19:41:15.122Z,99945.32
2018-07-04T19:43:54.538Z,99942.73
2018-07-04T19:46:34.116Z,99933.22
2018-07-04T19:49:13.523Z,99921.16
2018-07-04T19:51:52.969Z,99917.59
2018-07-04T19:54:32.657Z,99918.31
2018-07-04T19:57:12.047Z,99917.91
2018-07-04T19:59:51.515Z,99918.91
2018-07-04T20:02:31.074Z,99916.03
2018-07-04T20:05:10.305Z,99916.66
2018-07-04T20:07:49.734Z,99907.17
2018-07-04T20:10:29.156Z,99911.91
2018-07-04T20:13:08.658Z,99912.50
2018-07-04T20:15:48.104Z,99917.37
2018-07-04T20:18:27.863Z,99915.13
2018-07-04T20:21:07.474Z,99918.62
2018-07-04T20:23:47.649Z,99915.89
2018-07-04T20:26:27.213Z,99929.25
2018-07-04T20:29:06.715Z,99927.58
2018-07-04T20:31:46.184Z,99930.09
2018-07-04T20:34:25.823Z,99923.48
2018-07-04T20:37:05.215Z,99919.76
2018-07-04T20:39:44.733Z,99901.73
2018-07-04T20:42:24.434Z,99911.84
2018-07-04T20:45:03.931Z,99900.78
2018-07-04T20:47:43.395Z,99903.27
2018-07-04T20:50:22.909Z,99914.18
2018-07-04T20:53:02.294Z,99922.72
2018-07-04T20:55:41.772Z,99929.00
2018-07-04T20:58:21.197Z,99931.70
2018-07-04T21:01:00.655Z,99931.45
2018-07-04T21:03:40.127Z,99927.37
2018-07-04T21:06:19.678Z,99928.94
2018-07-04T21:08:59.232Z,99932.91
2018-07-04T21:11:38.678Z,99936.43
2018-07-04T21:14:18.226Z,99938.80
2018-07-04T21:16:57.822Z,99936.07
2018-07-04T21:19:37.402Z,99940.50
2018-07-04T21:22:17.854Z,99943.32
2018-07-04T21:24:57.457Z,99937.67
2018-07-04T21:27:36.958Z,99926.26
2018-07-04T21:30:16.370Z,99922.22
2018-07-04T21:32:55.793Z,99923.34
2018-07-04T21:35:35.261Z,99941.09
2018-07-04T21:38:14.709Z,99934.31
2018-07-04T21:40:54.152Z,99929.11
2018-07-04T21:43:33.606Z,99929.45
2018-07-04T21:46:13.198Z,99924.28
2018-07-04T21:48:52.463Z,99922.81
2018-07-04T21:51:32.067Z,99920.99
2018-07-04T21:54:11.498Z,99930.58
2018-07-04T21:56:51.330Z,99928.02
2018-07-04T21:59:30.913Z,99931.00
2018-07-04T22:02:10.326Z,99950.38
2018-07-04T22:04:49.818Z,99952.02
2018-07-04T22:07:29.333Z,99941.19
2018-07-04T22:10:08.734Z,99944.45
2018-07-04T22:12:48.320Z,99949.58
2018-07-04T22:15:27.832Z,99949.81
2018-07-04T22:18:07.399Z,99939.20
2018-07-04T22:20:46.795Z,99942.38
2018-07-04T22:23:26.277Z,99940.70
2018-07-04T22:26:05.778Z,99928.19
2018-07-04T22:28:45.685Z,99923.22
2018-07-04T22:31:25.273Z,99926.80
2018-07-04T22:34:04.865Z,99918.92
2018-07-04T22:36:44.382Z,99905.95
2018-07-04T22:39:23.807Z,99899.55
2018-07-04T22:42:03.297Z,99896.88
2018-07-04T22:44:42.861Z,99896.23
2018-07-04T22:47:22.187Z,99890.19
2018-07-04T22:50:01.767Z,99896.35
2018-07-04T22:52:41.357Z,99889.88
2018-07-04T22:55:21.065Z,99890.41
2018-07-04T22:58:00.648Z,99882.74
2018-07-04T23:00:40.143Z,99879.63
2018-07-04T23:03:19.798Z,99876.20
2018-07-04T23:05:59.457Z,99887.07
2018-07-04T23:08:47.768Z,99885.47
2018-07-04T23:11:27.279Z,99881.09
2018-07-04T23:14:06.856Z,99873.96
2018-07-04T23:16:46.385Z,99875.27
2018-07-04T23:19:25.823Z,99879.10
2018-07-04T23:22:05.358Z,99876.39
2018-07-04T23:24:44.933Z,99887.15
2018-07-04T23:27:24.307Z,99891.72
2018-07-04T23:30:04.019Z,99890.88
2018-07-04T23:32:43.401Z,99893.87
2018-07-04T23:35:23.401Z,99897.82
2018-07-04T23:38:02.995Z,99892.73
2018-07-04T23:40:42.717Z,99885.30
2018-07-04T23:43:22.241Z,99896.73
2018-07-04T23:46:02.108Z,99896.12
2018-07-04T23:48:41.662Z,99885.71
2018-07-04T23:51:21.209Z,99882.36
2018-07-04T23:54:00.614Z,99889.30
2018-07-04T23:56:40.021Z,99887.22
2018-07-04T23:59:19.391Z,99895.47
